KQBF/QBF METAR and TAF weather

Enter ICAO airport designator
Station Type Date Time Source
KQBF METAR 2019/12/14 18:56 UTC NOAA

KQBF 141856Z AUTO VRB03KT 5000 HZ CLR 29/M05 A2986 RMK AO2 SLP098 WND DATA ESTMD T02901046


Station Type Date Time Source
KQBF Decoded METAR 2019/12/14 18:56 UTC NOAA

Station name not available
Dec 14, 2019 - 01:56 PM EST / 2019.12.14 1856 UTC
Wind: Variable at 3 MPH (3 KT):0
Visibility: 3 mile(s):0
Sky conditions: clear
Weather: haze
Temperature: 84.2 F (29.0 C)
Dew Point: 23.7 F (-4.6 C)
Relative Humidity: 10%
Pressure (altimeter): 29.86 in. Hg (1011 hPa)
ob: KQBF 141856Z AUTO VRB03KT 5000 HZ CLR 29/M05 A2986 RMK AO2 SLP098 WND DATA ESTMD T02901046
cycle: 19

Station Type Date Time Source
KQBF TAF 2009/08/24 17:21 UTC NOAA

TAF
AMD KQBF 241721Z 241313 06010G20KT 9999 FEW025 SCT160 BKN230 QNH2915INS
BECMG 2223 100020G25KT 9000 -SHRA SCT009 BKN025 OVC035 610505 QNH2910INS
TEMPO 0209 10025G35KT BKN010
BECMG 1213 09020G25KT 9000 -SHRA SCT015 BKN035 OVC050 610606 T11/15Z T10/00Z
AMD 241744 LIMITED METWATCH 2417 TIL 2507

Example: see airport list